Time;durP1;ratioP1;P1;durP2;ratioP2;P2;SDS_P1;SDS_P2;PMS_P1;PMS_P2;Temp;Humidity;BMP_temperature;BMP_pressure;BME280_temperature;BME280_humidity;BME280_pressure;Samples;Min_cycle;Max_cycle;Signal;HPM_P1;HPM_P2
2022/08/02 00:00:45;;;;;;;12.80;3.95;;;;;;;;;;5019288;28;21891;-75
2022/08/02 00:03:11;;;;;;;11.73;3.70;;;;;;;;;;5031681;28;20043;-76
2022/08/02 00:05:37;;;;;;;9.88;3.53;;;;;;;;;;5034484;28;20040;-75
2022/08/02 00:08:02;;;;;;;9.80;3.70;;;;;;;;;;5034241;28;20048;-75
2022/08/02 00:10:28;;;;;;;8.63;3.28;;;;;;;;;;5016154;28;20033;-75
2022/08/02 00:12:53;;;;;;;11.13;3.58;;;;;;;;;;5017594;28;20646;-74
2022/08/02 00:15:19;;;;;;;10.25;2.90;;;;;;;;;;5017399;28;20072;-74
2022/08/02 00:17:44;;;;;;;8.32;3.10;;;;;;;;;;5018254;28;20532;-75
2022/08/02 00:20:10;;;;;;;6.03;2.53;;;;;;;;;;5006075;28;20479;-74
2022/08/02 00:22:35;;;;;;;8.40;2.97;;;;;;;;;;5018210;28;20037;-74
2022/08/02 00:25:04;;;;;;;6.40;2.55;;;;;;;;;;5016607;28;20051;-76
2022/08/02 00:27:30;;;;;;;6.63;2.70;;;;;;;;;;5018047;28;20033;-75
2022/08/02 00:29:58;;;;;;;7.78;2.45;;;;;;;;;;5024822;28;20040;-74
2022/08/02 00:32:23;;;;;;;9.45;3.10;;;;;;;;;;5018732;28;20072;-74
2022/08/02 00:34:49;;;;;;;9.07;3.00;;;;;;;;;;5017677;28;20044;-74
2022/08/02 00:37:15;;;;;;;10.52;3.50;;;;;;;;;;5022832;28;20475;-75
2022/08/02 00:39:43;;;;;;;6.38;2.35;;;;;;;;;;5035034;28;20039;-73
2022/08/02 00:42:09;;;;;;;8.82;2.45;;;;;;;;;;5021398;28;20628;-76
2022/08/02 00:44:35;;;;;;;4.50;2.08;;;;;;;;;;5017255;28;20284;-74
2022/08/02 00:47:03;;;;;;;4.28;1.60;;;;;;;;;;5017430;28;20045;-75
2022/08/02 00:49:29;;;;;;;6.38;1.65;;;;;;;;;;5019077;28;20303;-75
2022/08/02 00:51:57;;;;;;;5.85;1.70;;;;;;;;;;5017767;28;20071;-74
2022/08/02 00:54:22;;;;;;;7.00;1.33;;;;;;;;;;5017167;28;20384;-75
2022/08/02 00:56:48;;;;;;;7.32;1.52;;;;;;;;;;5032703;28;20753;-76
2022/08/02 00:59:13;;;;;;;5.90;1.92;;;;;;;;;;5018642;28;20033;-75
2022/08/02 01:01:38;;;;;;;5.57;1.80;;;;;;;;;;5024042;28;20029;-75
2022/08/02 01:04:05;;;;;;;5.50;1.38;;;;;;;;;;5022487;28;20219;-74
2022/08/02 01:06:32;;;;;;;5.13;1.80;;;;;;;;;;5009521;28;20418;-74
2022/08/02 01:08:58;;;;;;;6.28;2.22;;;;;;;;;;5036138;28;20033;-74
2022/08/02 01:11:23;;;;;;;4.93;1.80;;;;;;;;;;5022559;28;20713;-75
2022/08/02 01:13:48;;;;;;;6.78;1.60;;;;;;;;;;5020129;28;20040;-74
2022/08/02 01:16:17;;;;;;;3.75;1.33;;;;;;;;;;5015890;28;20444;-76
2022/08/02 01:18:46;;;;;;;4.25;1.42;;;;;;;;;;5021422;28;20116;-76
2022/08/02 01:21:30;;;;;;;5.78;2.20;;;;;;;;;;5019967;28;20130;-73
2022/08/02 01:24:14;;;;;;;6.60;2.70;;;;;;;;;;5026599;28;20293;-75
2022/08/02 01:26:47;;;;;;;9.23;3.00;;;;;;;;;;5035034;28;20124;-75
2022/08/02 01:29:20;;;;;;;10.45;3.15;;;;;;;;;;5019812;28;20574;-75
2022/08/02 01:32:06;;;;;;;9.00;3.08;;;;;;;;;;5020626;28;20102;-74
2022/08/02 01:34:38;;;;;;;11.43;3.35;;;;;;;;;;5020305;28;20148;-75
2022/08/02 01:37:15;;;;;;;9.82;3.78;;;;;;;;;;5034069;27;20200;-74
2022/08/02 01:39:42;;;;;;;10.05;4.35;;;;;;;;;;5021269;27;20032;-75
2022/08/02 01:42:08;;;;;;;15.25;6.70;;;;;;;;;;5020996;27;20058;-75
2022/08/02 01:44:35;;;;;;;14.38;6.13;;;;;;;;;;5021170;27;20166;-74
2022/08/02 01:47:02;;;;;;;16.23;7.18;;;;;;;;;;5012643;28;20346;-75
2022/08/02 01:49:29;;;;;;;12.20;4.82;;;;;;;;;;5022672;27;20033;-75
2022/08/02 01:54:41;;;;;;;6.82;2.45;;;;;;;;;;5009983;28;20056;-75
2022/08/02 01:57:11;;;;;;;7.95;2.40;;;;;;;;;;5020231;28;20194;-75
2022/08/02 01:59:38;;;;;;;5.80;2.60;;;;;;;;;;5021638;28;20064;-74
2022/08/02 02:02:06;;;;;;;7.13;2.10;;;;;;;;;;5022446;28;20294;-76
2022/08/02 02:04:34;;;;;;;8.43;2.33;;;;;;;;;;5020376;28;20352;-74
2022/08/02 02:07:00;;;;;;;5.47;2.00;;;;;;;;;;5020988;28;20039;-75
2022/08/02 02:09:28;;;;;;;6.53;2.10;;;;;;;;;;5022426;28;20668;-74
2022/08/02 02:11:55;;;;;;;5.55;2.30;;;;;;;;;;5021066;28;22221;-74
2022/08/02 02:14:22;;;;;;;6.63;2.33;;;;;;;;;;5022004;28;20036;-75
2022/08/02 02:16:48;;;;;;;6.78;2.63;;;;;;;;;;5021480;28;20075;-75
2022/08/02 02:19:15;;;;;;;6.38;3.08;;;;;;;;;;5021867;28;20032;-74
2022/08/02 02:21:43;;;;;;;9.90;2.97;;;;;;;;;;5020687;28;20438;-75
2022/08/02 02:24:09;;;;;;;8.40;3.20;;;;;;;;;;5020188;28;20032;-75
2022/08/02 02:26:37;;;;;;;8.45;2.72;;;;;;;;;;5023531;28;20835;-74
2022/08/02 02:29:04;;;;;;;9.43;3.80;;;;;;;;;;5021325;28;21923;-77
2022/08/02 02:31:34;;;;;;;8.20;3.13;;;;;;;;;;5020970;28;20139;-73
2022/08/02 02:34:00;;;;;;;6.88;3.42;;;;;;;;;;5019730;28;20036;-76
2022/08/02 02:36:27;;;;;;;11.10;4.32;;;;;;;;;;5021271;28;20065;-75
2022/08/02 02:38:54;;;;;;;12.90;3.35;;;;;;;;;;5020356;28;20028;-77
2022/08/02 02:41:20;;;;;;;11.60;3.60;;;;;;;;;;5020994;28;20255;-75
2022/08/02 02:43:46;;;;;;;9.48;3.38;;;;;;;;;;5021482;28;20839;-75
2022/08/02 02:46:11;;;;;;;11.73;6.97;;;;;;;;;;5022794;28;20652;-74
2022/08/02 02:48:37;;;;;;;13.77;6.57;;;;;;;;;;5020864;28;20028;-76
2022/08/02 02:51:03;;;;;;;11.25;5.20;;;;;;;;;;5020292;28;20498;-73
2022/08/02 02:53:29;;;;;;;12.52;4.90;;;;;;;;;;5021078;28;20136;-75
2022/08/02 02:55:55;;;;;;;12.10;5.93;;;;;;;;;;5016815;28;20052;-73
2022/08/02 02:58:24;;;;;;;13.13;5.47;;;;;;;;;;5021492;28;20569;-76
2022/08/02 03:03:34;;;;;;;11.00;3.63;;;;;;;;;;5042879;27;20058;-74
2022/08/02 03:06:00;;;;;;;12.57;4.40;;;;;;;;;;5020083;28;20082;-74
2022/08/02 03:08:25;;;;;;;11.25;4.47;;;;;;;;;;5023219;28;20044;-72
2022/08/02 03:10:51;;;;;;;15.35;6.20;;;;;;;;;;5033264;28;20432;-74
2022/08/02 03:13:17;;;;;;;22.63;7.70;;;;;;;;;;5018194;28;20495;-74
2022/08/02 03:15:44;;;;;;;15.77;5.93;;;;;;;;;;5024072;28;20041;-75
2022/08/02 03:18:09;;;;;;;14.55;6.38;;;;;;;;;;5018392;28;20573;-75
2022/08/02 03:20:35;;;;;;;13.00;4.45;;;;;;;;;;5019909;28;20090;-74
2022/08/02 03:23:01;;;;;;;12.23;4.38;;;;;;;;;;5017285;28;20287;-74
2022/08/02 03:25:26;;;;;;;9.65;3.50;;;;;;;;;;5019028;28;20674;-75
2022/08/02 03:27:51;;;;;;;9.63;3.53;;;;;;;;;;5034152;27;20717;-74
2022/08/02 03:30:17;;;;;;;10.35;4.68;;;;;;;;;;5010632;28;20032;-75
2022/08/02 03:32:44;;;;;;;10.80;3.85;;;;;;;;;;5017894;28;20095;-74
2022/08/02 03:35:10;;;;;;;12.68;3.55;;;;;;;;;;5018727;28;20047;-74
2022/08/02 03:37:36;;;;;;;8.77;2.90;;;;;;;;;;5020824;28;20040;-74
2022/08/02 03:40:05;;;;;;;9.93;2.80;;;;;;;;;;5018683;28;20188;-74
2022/08/02 03:42:30;;;;;;;10.50;3.30;;;;;;;;;;5017910;28;20075;-73
2022/08/02 03:44:57;;;;;;;9.82;3.42;;;;;;;;;;5019025;28;20037;-74
2022/08/02 03:47:23;;;;;;;9.40;3.45;;;;;;;;;;5038402;27;20197;-74
2022/08/02 03:49:48;;;;;;;10.18;3.85;;;;;;;;;;5021201;28;20067;-73
2022/08/02 03:52:14;;;;;;;14.85;6.65;;;;;;;;;;5017925;28;20097;-74
2022/08/02 03:54:40;;;;;;;18.58;7.43;;;;;;;;;;5017640;28;20052;-72
2022/08/02 03:57:09;;;;;;;13.35;7.53;;;;;;;;;;5020115;28;20260;-74
2022/08/02 03:59:44;;;;;;;15.57;5.97;;;;;;;;;;5023741;28;20033;-74
2022/08/02 04:02:10;;;;;;;14.32;4.90;;;;;;;;;;5017801;28;20574;-73
2022/08/02 04:04:35;;;;;;;12.45;5.28;;;;;;;;;;5004742;28;20591;-75
2022/08/02 04:07:01;;;;;;;12.88;4.88;;;;;;;;;;5019002;28;20368;-74
2022/08/02 04:09:27;;;;;;;9.65;4.43;;;;;;;;;;5019289;28;20044;-73
2022/08/02 04:11:52;;;;;;;12.98;4.10;;;;;;;;;;5019773;28;20033;-74
2022/08/02 04:14:17;;;;;;;9.25;3.45;;;;;;;;;;5018891;28;20032;-75
2022/08/02 04:16:50;;;;;;;10.27;4.05;;;;;;;;;;5019222;28;20025;-74
2022/08/02 04:19:18;;;;;;;11.57;4.00;;;;;;;;;;5017508;28;20527;-74
2022/08/02 04:21:44;;;;;;;8.73;2.70;;;;;;;;;;5018251;28;20268;-72
2022/08/02 04:24:11;;;;;;;7.13;2.20;;;;;;;;;;5031462;28;20138;-73
2022/08/02 04:26:37;;;;;;;7.18;2.17;;;;;;;;;;5023774;28;20116;-73
2022/08/02 04:29:03;;;;;;;8.43;2.55;;;;;;;;;;5019443;28;20040;-73
2022/08/02 04:31:28;;;;;;;11.43;2.38;;;;;;;;;;5020431;28;20347;-75
2022/08/02 04:33:54;;;;;;;5.38;1.85;;;;;;;;;;5016321;28;20116;-73
2022/08/02 04:36:19;;;;;;;7.40;2.10;;;;;;;;;;5007058;28;20673;-72
2022/08/02 04:38:49;;;;;;;8.00;2.20;;;;;;;;;;5021214;28;20778;-73
2022/08/02 04:41:14;;;;;;;10.80;2.60;;;;;;;;;;5053242;27;20068;-74
2022/08/02 04:43:42;;;;;;;5.93;2.13;;;;;;;;;;5021011;28;20029;-74
2022/08/02 04:46:10;;;;;;;7.68;2.70;;;;;;;;;;5020108;28;20698;-73
2022/08/02 04:48:35;;;;;;;7.25;2.65;;;;;;;;;;5020279;28;20041;-72
2022/08/02 04:51:00;;;;;;;8.77;2.50;;;;;;;;;;5020921;28;20044;-73
2022/08/02 04:53:26;;;;;;;7.95;2.72;;;;;;;;;;5020737;28;20503;-74
2022/08/02 04:55:51;;;;;;;6.90;2.10;;;;;;;;;;5020928;28;20099;-73
2022/08/02 04:58:17;;;;;;;7.25;2.30;;;;;;;;;;5023881;28;20461;-73
2022/08/02 05:00:43;;;;;;;7.68;2.80;;;;;;;;;;5021449;28;20444;-73
2022/08/02 05:03:08;;;;;;;8.45;3.13;;;;;;;;;;5019544;28;20132;-72
2022/08/02 05:05:34;;;;;;;10.63;3.97;;;;;;;;;;5021397;28;20033;-72
2022/08/02 05:07:59;;;;;;;8.40;3.20;;;;;;;;;;5021462;28;20033;-73
2022/08/02 05:10:25;;;;;;;12.18;3.30;;;;;;;;;;5035766;28;20202;-73
2022/08/02 05:12:51;;;;;;;11.60;3.42;;;;;;;;;;5020501;28;20284;-73
2022/08/02 05:15:17;;;;;;;13.80;3.70;;;;;;;;;;5021533;28;20431;-72
2022/08/02 05:17:46;;;;;;;11.52;2.75;;;;;;;;;;5021205;28;20059;-75
2022/08/02 05:20:16;;;;;;;11.82;3.20;;;;;;;;;;5023595;28;20044;-73
2022/08/02 05:22:41;;;;;;;9.57;2.90;;;;;;;;;;5024075;28;20462;-73
2022/08/02 05:25:07;;;;;;;9.70;3.85;;;;;;;;;;5024089;28;20163;-73
2022/08/02 05:27:35;;;;;;;9.23;2.72;;;;;;;;;;5018240;28;20102;-74
2022/08/02 05:30:00;;;;;;;10.88;3.00;;;;;;;;;;5022081;28;20497;-74
2022/08/02 05:32:26;;;;;;;8.70;2.80;;;;;;;;;;5035379;28;20132;-74
2022/08/02 05:34:51;;;;;;;10.15;3.60;;;;;;;;;;5036800;28;20037;-74
2022/08/02 05:37:16;;;;;;;13.48;4.03;;;;;;;;;;5024245;28;20048;-73
2022/08/02 05:39:42;;;;;;;11.55;3.60;;;;;;;;;;5020816;28;20351;-73
2022/08/02 05:42:07;;;;;;;8.63;3.60;;;;;;;;;;5019954;28;20074;-73
2022/08/02 05:44:32;;;;;;;10.70;3.83;;;;;;;;;;5020888;28;20065;-74
2022/08/02 05:46:57;;;;;;;9.40;3.50;;;;;;;;;;5033856;28;20097;-73
2022/08/02 05:49:23;;;;;;;9.15;3.70;;;;;;;;;;5022324;28;20676;-73
2022/08/02 05:51:54;;;;;;;10.55;3.97;;;;;;;;;;5023442;28;21813;-74
2022/08/02 05:54:46;;;;;;;11.20;3.75;;;;;;;;;;5019515;28;20056;-72
2022/08/02 05:57:30;;;;;;;14.38;4.60;;;;;;;;;;5017206;28;20483;-73
2022/08/02 05:59:58;;;;;;;12.93;4.18;;;;;;;;;;5019136;28;20578;-73
2022/08/02 06:02:38;;;;;;;13.35;4.60;;;;;;;;;;5006076;28;20073;-74
2022/08/02 06:05:06;;;;;;;10.45;4.05;;;;;;;;;;5033766;28;20051;-74
2022/08/02 06:07:34;;;;;;;12.30;4.15;;;;;;;;;;5018219;28;20035;-73
2022/08/02 06:10:00;;;;;;;10.88;3.97;;;;;;;;;;5018613;28;20557;-74
2022/08/02 06:12:31;;;;;;;13.80;4.72;;;;;;;;;;5020851;28;20741;-74
2022/08/02 06:14:57;;;;;;;7.80;4.13;;;;;;;;;;5020096;28;20085;-73
2022/08/02 06:17:23;;;;;;;16.88;4.82;;;;;;;;;;5022027;28;20855;-74
2022/08/02 06:19:49;;;;;;;14.60;4.95;;;;;;;;;;5019045;28;20112;-73
2022/08/02 06:22:17;;;;;;;12.35;4.70;;;;;;;;;;5020326;28;21929;-73
2022/08/02 06:24:48;;;;;;;10.73;4.05;;;;;;;;;;5036394;28;20063;-74
2022/08/02 06:27:14;;;;;;;13.52;4.88;;;;;;;;;;5019303;28;20037;-74
2022/08/02 06:29:41;;;;;;;19.48;5.45;;;;;;;;;;5020097;28;20427;-73
2022/08/02 06:32:07;;;;;;;31.77;8.10;;;;;;;;;;5018471;28;20082;-75
2022/08/02 06:34:36;;;;;;;35.45;10.50;;;;;;;;;;5024220;28;20068;-75
2022/08/02 06:37:04;;;;;;;35.70;10.85;;;;;;;;;;5017639;28;20075;-75
2022/08/02 06:39:31;;;;;;;43.72;11.82;;;;;;;;;;5014524;28;20648;-73
2022/08/02 06:41:57;;;;;;;34.85;11.63;;;;;;;;;;5018221;28;20029;-74
2022/08/02 06:44:23;;;;;;;30.85;10.07;;;;;;;;;;5022360;28;20962;-74
2022/08/02 06:46:49;;;;;;;22.17;7.95;;;;;;;;;;5016390;28;20535;-74
2022/08/02 06:49:14;;;;;;;16.25;6.75;;;;;;;;;;5018740;28;20259;-75
2022/08/02 06:51:39;;;;;;;14.13;6.20;;;;;;;;;;5019069;28;20035;-71
2022/08/02 06:54:04;;;;;;;16.20;7.35;;;;;;;;;;5018200;28;20075;-72
2022/08/02 06:56:30;;;;;;;14.18;6.95;;;;;;;;;;5033222;28;20326;-71
2022/08/02 06:58:55;;;;;;;12.85;6.18;;;;;;;;;;5022387;28;20849;-72
2022/08/02 07:01:21;;;;;;;10.88;5.68;;;;;;;;;;5016745;28;20056;-71
2022/08/02 07:03:47;;;;;;;12.40;7.05;;;;;;;;;;5020024;28;20347;-71
2022/08/02 07:06:14;;;;;;;11.05;6.55;;;;;;;;;;5018653;28;20500;-71
2022/08/02 07:08:40;;;;;;;13.07;7.07;;;;;;;;;;5022022;28;20073;-71
2022/08/02 07:11:07;;;;;;;16.55;7.47;;;;;;;;;;5024050;28;20450;-72
2022/08/02 07:13:33;;;;;;;11.90;6.78;;;;;;;;;;5020330;28;20317;-71
2022/08/02 07:15:58;;;;;;;15.75;8.75;;;;;;;;;;5034616;28;20043;-71
2022/08/02 07:18:24;;;;;;;15.07;8.95;;;;;;;;;;5018557;28;20058;-71
2022/08/02 07:20:49;;;;;;;15.77;8.07;;;;;;;;;;5018715;28;20576;-74
2022/08/02 07:23:15;;;;;;;14.77;8.20;;;;;;;;;;5023826;28;20041;-73
2022/08/02 07:25:41;;;;;;;11.07;7.65;;;;;;;;;;5018401;28;20044;-74
2022/08/02 07:28:08;;;;;;;11.75;8.60;;;;;;;;;;5018877;28;20068;-73
2022/08/02 07:30:33;;;;;;;12.88;9.32;;;;;;;;;;5015048;28;20494;-74
2022/08/02 07:32:59;;;;;;;16.42;8.98;;;;;;;;;;5006848;28;20379;-73
2022/08/02 07:35:24;;;;;;;14.40;9.55;;;;;;;;;;5018837;28;20711;-72
2022/08/02 07:37:50;;;;;;;19.05;11.20;;;;;;;;;;5018047;28;20579;-73
2022/08/02 07:40:15;;;;;;;13.25;9.48;;;;;;;;;;5017712;28;20252;-73
2022/08/02 07:42:44;;;;;;;14.23;9.73;;;;;;;;;;5022927;28;20198;-73
2022/08/02 07:45:10;;;;;;;12.25;9.70;;;;;;;;;;5017846;28;20187;-73
2022/08/02 07:47:37;;;;;;;16.85;12.57;;;;;;;;;;5019051;28;20032;-73
2022/08/02 07:50:03;;;;;;;19.33;13.15;;;;;;;;;;5020402;28;20071;-73
2022/08/02 07:52:30;;;;;;;14.60;11.48;;;;;;;;;;5017935;28;20115;-73
2022/08/02 07:54:58;;;;;;;20.13;13.93;;;;;;;;;;5018441;28;20401;-74
2022/08/02 07:57:24;;;;;;;17.83;13.82;;;;;;;;;;5022748;28;20131;-75
2022/08/02 07:59:50;;;;;;;19.15;12.98;;;;;;;;;;5018077;28;20506;-75
2022/08/02 08:02:15;;;;;;;18.63;13.88;;;;;;;;;;5018119;28;20297;-76
2022/08/02 08:04:41;;;;;;;21.83;15.45;;;;;;;;;;5016920;28;20036;-75
2022/08/02 08:07:08;;;;;;;17.92;13.85;;;;;;;;;;5019307;28;20047;-74
2022/08/02 08:09:38;;;;;;;16.58;13.25;;;;;;;;;;5018109;28;20699;-74
2022/08/02 08:12:07;;;;;;;19.15;11.75;;;;;;;;;;5020484;28;20041;-74
2022/08/02 08:14:33;;;;;;;16.55;13.10;;;;;;;;;;5022010;28;20578;-74
2022/08/02 08:16:58;;;;;;;23.52;16.17;;;;;;;;;;5023520;28;20044;-73
2022/08/02 08:19:24;;;;;;;24.45;18.92;;;;;;;;;;5037142;28;20489;-71
2022/08/02 08:21:49;;;;;;;25.60;20.52;;;;;;;;;;5022447;28;20363;-73
2022/08/02 08:24:17;;;;;;;24.05;20.13;;;;;;;;;;5021935;28;20044;-73
2022/08/02 08:26:42;;;;;;;25.63;19.80;;;;;;;;;;5020709;28;20592;-73
2022/08/02 08:29:07;;;;;;;25.38;17.13;;;;;;;;;;5023109;28;20228;-73
2022/08/02 08:31:33;;;;;;;17.30;14.70;;;;;;;;;;5021707;28;20131;-70
2022/08/02 08:33:58;;;;;;;23.45;15.23;;;;;;;;;;5021033;28;20037;-71
2022/08/02 08:36:27;;;;;;;21.92;15.35;;;;;;;;;;5020115;28;20049;-70
2022/08/02 08:38:52;;;;;;;23.55;14.90;;;;;;;;;;5017160;28;20073;-73
2022/08/02 08:41:18;;;;;;;22.65;14.50;;;;;;;;;;5036617;28;20095;-71
2022/08/02 08:43:46;;;;;;;19.08;14.25;;;;;;;;;;5032635;28;20313;-76
2022/08/02 08:46:19;;;;;;;19.17;14.45;;;;;;;;;;5035308;28;20404;-75
2022/08/02 08:48:46;;;;;;;17.98;13.50;;;;;;;;;;5028777;28;20033;-76
2022/08/02 08:51:14;;;;;;;19.10;13.77;;;;;;;;;;5037645;28;20036;-75
2022/08/02 08:53:43;;;;;;;18.73;13.95;;;;;;;;;;5038229;28;20124;-75
2022/08/02 08:56:13;;;;;;;21.88;15.15;;;;;;;;;;5034755;28;20156;-73
2022/08/02 08:58:39;;;;;;;19.83;14.10;;;;;;;;;;5038077;28;20595;-75
2022/08/02 09:01:05;;;;;;;19.65;14.57;;;;;;;;;;5031275;28;20579;-76
2022/08/02 09:03:30;;;;;;;20.65;14.27;;;;;;;;;;5034758;28;20055;-77
2022/08/02 09:05:59;;;;;;;19.25;14.80;;;;;;;;;;5033715;28;20191;-78
2022/08/02 09:08:25;;;;;;;21.08;15.10;;;;;;;;;;5037346;28;20647;-74
2022/08/02 09:10:50;;;;;;;22.70;16.00;;;;;;;;;;5035671;28;20037;-76
2022/08/02 09:13:19;;;;;;;24.95;15.85;;;;;;;;;;5031198;28;20067;-76
2022/08/02 09:15:51;;;;;;;24.10;15.38;;;;;;;;;;5038203;28;20033;-77
2022/08/02 09:18:18;;;;;;;26.13;15.00;;;;;;;;;;5036014;28;20044;-75
2022/08/02 09:20:56;;;;;;;27.15;16.15;;;;;;;;;;5034829;28;20075;-78
2022/08/02 09:23:21;;;;;;;30.70;19.67;;;;;;;;;;5032123;28;20533;-77
2022/08/02 09:25:57;;;;;;;31.08;21.05;;;;;;;;;;5021954;28;20337;-76
2022/08/02 09:28:25;;;;;;;28.75;23.02;;;;;;;;;;5032245;28;20036;-83
2022/08/02 09:30:50;;;;;;;33.53;23.55;;;;;;;;;;5019976;28;20500;-76
2022/08/02 09:33:23;;;;;;;34.00;24.55;;;;;;;;;;5031927;28;20075;-78
2022/08/02 09:35:57;;;;;;;31.85;23.38;;;;;;;;;;5032091;28;20040;-80
2022/08/02 09:38:22;;;;;;;28.55;22.42;;;;;;;;;;5040484;28;20185;-80
2022/08/02 09:40:48;;;;;;;26.92;22.30;;;;;;;;;;5044096;28;20400;-75
2022/08/02 09:43:15;;;;;;;26.63;21.55;;;;;;;;;;5070608;28;20309;-79
2022/08/02 09:45:40;;;;;;;28.60;20.98;;;;;;;;;;5070043;28;20029;-79
2022/08/02 09:48:06;;;;;;;25.98;18.88;;;;;;;;;;5057006;28;20139;-79
2022/08/02 09:50:32;;;;;;;25.63;18.17;;;;;;;;;;5038153;28;20140;-73
2022/08/02 09:52:57;;;;;;;24.88;18.63;;;;;;;;;;5037553;28;20162;-72
2022/08/02 09:55:24;;;;;;;24.73;18.50;;;;;;;;;;5031753;28;20136;-70
2022/08/02 09:57:50;;;;;;;32.00;19.35;;;;;;;;;;5022586;28;20036;-73
2022/08/02 10:00:16;;;;;;;29.20;20.30;;;;;;;;;;5021345;28;20045;-73
2022/08/02 10:03:00;;;;;;;32.83;20.10;;;;;;;;;;5027048;28;20025;-72
2022/08/02 10:05:44;;;;;;;25.55;17.80;;;;;;;;;;5026166;28;20041;-73
2022/08/02 10:08:10;;;;;;;28.95;18.60;;;;;;;;;;5027343;28;20324;-72
2022/08/02 10:10:35;;;;;;;31.40;18.23;;;;;;;;;;5024237;28;20517;-72
2022/08/02 10:13:01;;;;;;;25.70;16.20;;;;;;;;;;5040462;28;20605;-72
2022/08/02 10:15:26;;;;;;;23.35;17.75;;;;;;;;;;5026043;28;20045;-72
2022/08/02 10:17:52;;;;;;;31.70;18.95;;;;;;;;;;5036865;28;20032;-72
2022/08/02 10:20:17;;;;;;;26.98;18.33;;;;;;;;;;5031459;28;20037;-71
2022/08/02 10:22:43;;;;;;;29.73;17.63;;;;;;;;;;5021326;28;20140;-72
2022/08/02 10:25:08;;;;;;;23.88;17.67;;;;;;;;;;5040981;28;20110;-73
2022/08/02 10:27:34;;;;;;;26.95;18.02;;;;;;;;;;5044211;28;20552;-74
2022/08/02 10:30:00;;;;;;;25.45;17.23;;;;;;;;;;5037351;28;20630;-73
2022/08/02 10:32:30;;;;;;;23.80;17.48;;;;;;;;;;5034711;28;20928;-73
2022/08/02 10:34:59;;;;;;;23.75;15.27;;;;;;;;;;5027236;27;20044;-72
2022/08/02 10:37:28;;;;;;;25.33;16.63;;;;;;;;;;5060186;27;20055;-72
2022/08/02 10:39:55;;;;;;;26.90;16.08;;;;;;;;;;5015949;28;20036;-73
2022/08/02 10:42:39;;;;;;;22.50;14.45;;;;;;;;;;5038947;28;20147;-73
2022/08/02 10:45:08;;;;;;;24.45;16.08;;;;;;;;;;5038340;28;20029;-76
2022/08/02 10:47:34;;;;;;;24.58;15.18;;;;;;;;;;5052792;28;20552;-73
2022/08/02 10:49:59;;;;;;;19.52;13.27;;;;;;;;;;5047156;28;20062;-75
2022/08/02 10:52:30;;;;;;;22.42;13.73;;;;;;;;;;5037773;28;20069;-73
2022/08/02 10:55:00;;;;;;;25.70;13.15;;;;;;;;;;5035044;28;20056;-74
2022/08/02 10:57:29;;;;;;;23.88;12.80;;;;;;;;;;5042684;28;21542;-74
2022/08/02 11:00:14;;;;;;;20.80;12.50;;;;;;;;;;5039964;27;20107;-73
2022/08/02 11:02:46;;;;;;;24.33;12.88;;;;;;;;;;5067187;27;20599;-73
2022/08/02 11:05:31;;;;;;;17.83;12.02;;;;;;;;;;5032538;27;20554;-74
2022/08/02 11:08:16;;;;;;;21.17;11.25;;;;;;;;;;5046600;27;20112;-72
2022/08/02 11:10:41;;;;;;;22.65;10.73;;;;;;;;;;5040327;27;20532;-72
2022/08/02 11:13:09;;;;;;;24.27;11.10;;;;;;;;;;5038434;27;20037;-73
2022/08/02 11:15:52;;;;;;;19.77;10.38;;;;;;;;;;5029438;28;20123;-72
2022/08/02 11:18:20;;;;;;;19.77;10.60;;;;;;;;;;5037889;28;20052;-71
2022/08/02 11:20:46;;;;;;;19.45;11.02;;;;;;;;;;5042727;27;20053;-73
2022/08/02 11:23:31;;;;;;;17.80;11.63;;;;;;;;;;5028781;27;20077;-72
2022/08/02 11:25:56;;;;;;;25.17;12.00;;;;;;;;;;5021074;27;20137;-73
2022/08/02 11:28:22;;;;;;;21.08;10.95;;;;;;;;;;5022096;27;21410;-71
2022/08/02 11:30:54;;;;;;;17.67;8.73;;;;;;;;;;5017679;27;20577;-72
2022/08/02 11:33:20;;;;;;;18.25;8.32;;;;;;;;;;5023535;27;20028;-74
2022/08/02 11:35:47;;;;;;;19.40;8.23;;;;;;;;;;5019508;27;20048;-72
2022/08/02 11:38:17;;;;;;;13.38;6.35;;;;;;;;;;5021737;27;20157;-73
2022/08/02 11:40:43;;;;;;;17.63;7.18;;;;;;;;;;5021379;27;20163;-71
2022/08/02 11:43:19;;;;;;;17.92;6.15;;;;;;;;;;5052228;27;20033;-71
2022/08/02 11:45:45;;;;;;;14.50;6.13;;;;;;;;;;5022420;27;20144;-70
2022/08/02 11:48:13;;;;;;;16.65;7.30;;;;;;;;;;5022400;27;20270;-71
2022/08/02 11:50:39;;;;;;;15.57;7.05;;;;;;;;;;5020923;27;20147;-73
2022/08/02 11:53:16;;;;;;;16.58;6.10;;;;;;;;;;5023700;27;20057;-72
2022/08/02 11:55:42;;;;;;;21.23;5.60;;;;;;;;;;5013295;28;20051;-71
2022/08/02 11:58:10;;;;;;;14.90;5.90;;;;;;;;;;5023238;28;20108;-71
2022/08/02 12:00:36;;;;;;;17.60;5.32;;;;;;;;;;5025181;28;20040;-71
2022/08/02 12:03:06;;;;;;;12.52;5.30;;;;;;;;;;5027504;28;20125;-72
2022/08/02 12:05:34;;;;;;;14.27;5.60;;;;;;;;;;5040965;28;20079;-71
2022/08/02 12:07:59;;;;;;;15.55;5.47;;;;;;;;;;5014841;28;20336;-72
2022/08/02 12:10:25;;;;;;;20.52;5.35;;;;;;;;;;5033809;28;20167;-74
2022/08/02 12:12:57;;;;;;;14.55;5.00;;;;;;;;;;5036967;28;20149;-71
2022/08/02 12:15:36;;;;;;;18.92;5.30;;;;;;;;;;5025748;28;20071;-72
2022/08/02 12:20:46;;;;;;;14.45;5.55;;;;;;;;;;5035914;28;20041;-72
2022/08/02 12:23:11;;;;;;;16.73;5.15;;;;;;;;;;5034506;28;20037;-72
2022/08/02 12:25:39;;;;;;;22.85;5.35;;;;;;;;;;5027445;28;20591;-72
2022/08/02 12:28:31;;;;;;;14.32;4.97;;;;;;;;;;5033616;28;20500;-72
2022/08/02 12:30:59;;;;;;;;;;;;;;;;;;5019954;28;20036;-71
2022/08/02 12:33:28;;;;;;;18.00;4.88;;;;;;;;;;5044753;28;19912;-72
2022/08/02 12:35:54;;;;;;;17.38;5.15;;;;;;;;;;5033373;28;20519;-72
2022/08/02 12:38:20;;;;;;;16.52;5.00;;;;;;;;;;5043537;28;20025;-74
2022/08/02 12:40:45;;;;;;;16.55;5.00;;;;;;;;;;5020283;28;20048;-71
2022/08/02 12:43:37;;;;;;;17.15;5.10;;;;;;;;;;5048628;28;20033;-72
2022/08/02 12:46:04;;;;;;;14.15;4.07;;;;;;;;;;5030328;28;20029;-73
2022/08/02 12:48:34;;;;;;;16.77;4.07;;;;;;;;;;5028198;28;20677;-71
2022/08/02 12:51:17;;;;;;;17.88;4.07;;;;;;;;;;5044601;28;20040;-72
2022/08/02 12:53:42;;;;;;;15.85;3.95;;;;;;;;;;5076613;28;20054;-73
2022/08/02 12:56:08;;;;;;;16.58;3.85;;;;;;;;;;5036891;28;20084;-72
2022/08/02 12:58:51;;;;;;;17.02;3.67;;;;;;;;;;5038284;28;20284;-71
2022/08/02 13:01:26;;;;;;;22.30;4.18;;;;;;;;;;5030899;28;20539;-72
2022/08/02 13:03:52;;;;;;;18.58;4.10;;;;;;;;;;5048410;28;20339;-72
2022/08/02 13:06:20;;;;;;;18.95;4.18;;;;;;;;;;5036586;28;20037;-73
2022/08/02 13:08:49;;;;;;;14.70;3.55;;;;;;;;;;5033049;27;20034;-71
2022/08/02 13:11:14;;;;;;;14.57;3.60;;;;;;;;;;5036058;27;20563;-71
2022/08/02 13:13:42;;;;;;;17.38;3.60;;;;;;;;;;5034415;27;20391;-72
2022/08/02 13:16:11;;;;;;;15.63;3.30;;;;;;;;;;5037553;27;20048;-71
2022/08/02 13:18:38;;;;;;;;;;;;;;;;;;5034067;27;20040;-74
2022/08/02 13:21:05;;;;;;;19.10;3.58;;;;;;;;;;5044893;28;19947;-71
2022/08/02 13:23:34;;;;;;;13.90;3.30;;;;;;;;;;5028525;27;20033;-73
2022/08/02 13:26:05;;;;;;;9.45;3.20;;;;;;;;;;5034317;28;20200;-71
2022/08/02 13:28:30;;;;;;;16.48;3.28;;;;;;;;;;5031298;28;20037;-72
2022/08/02 13:30:55;;;;;;;16.35;3.28;;;;;;;;;;5031946;28;20024;-73
2022/08/02 13:33:21;;;;;;;18.23;3.95;;;;;;;;;;5029506;28;20366;-70
2022/08/02 13:35:48;;;;;;;12.35;3.33;;;;;;;;;;5032201;28;20375;-73
2022/08/02 13:38:13;;;;;;;20.85;4.15;;;;;;;;;;5040556;28;20556;-72
2022/08/02 13:43:23;;;;;;;13.45;3.67;;;;;;;;;;5038914;28;20098;-72
2022/08/02 13:45:48;;;;;;;16.25;3.97;;;;;;;;;;5043212;28;20039;-72
2022/08/02 13:48:14;;;;;;;18.75;3.30;;;;;;;;;;5031770;28;20317;-72
2022/08/02 13:50:39;;;;;;;11.98;3.38;;;;;;;;;;5027909;28;20139;-71
2022/08/02 13:53:05;;;;;;;12.40;3.28;;;;;;;;;;5025843;28;20040;-72
2022/08/02 13:55:30;;;;;;;12.93;3.35;;;;;;;;;;5025191;28;20693;-72
2022/08/02 13:57:58;;;;;;;13.20;3.17;;;;;;;;;;5024186;28;20044;-71
2022/08/02 14:00:23;;;;;;;14.15;3.28;;;;;;;;;;5019057;28;20047;-71
2022/08/02 14:02:49;;;;;;;16.17;3.60;;;;;;;;;;5025962;28;20521;-71
2022/08/02 14:05:14;;;;;;;16.58;3.60;;;;;;;;;;5027827;28;20532;-72
2022/08/02 14:07:39;;;;;;;15.23;4.15;;;;;;;;;;5027939;28;20036;-72
2022/08/02 14:10:05;;;;;;;15.43;3.58;;;;;;;;;;5044288;28;20040;-72
2022/08/02 14:12:30;;;;;;;14.25;3.35;;;;;;;;;;5032533;28;20028;-72
2022/08/02 14:14:58;;;;;;;13.93;3.22;;;;;;;;;;5027983;28;20044;-71
2022/08/02 14:17:25;;;;;;;14.00;3.10;;;;;;;;;;5025820;28;20781;-71
2022/08/02 14:19:51;;;;;;;15.38;2.97;;;;;;;;;;5030912;28;20124;-72
2022/08/02 14:22:16;;;;;;;12.32;2.92;;;;;;;;;;5029719;28;20107;-72
2022/08/02 14:24:42;;;;;;;13.77;2.95;;;;;;;;;;5026448;28;20402;-71
2022/08/02 14:27:09;;;;;;;12.90;2.88;;;;;;;;;;5025346;28;20035;-71
2022/08/02 14:29:35;;;;;;;10.10;2.58;;;;;;;;;;5051644;28;20454;-70
2022/08/02 14:32:00;;;;;;;9.90;2.58;;;;;;;;;;5027720;28;20067;-72
2022/08/02 14:34:25;;;;;;;14.48;2.72;;;;;;;;;;5028465;28;20660;-72
2022/08/02 14:36:53;;;;;;;15.68;2.80;;;;;;;;;;5059462;28;20429;-72
2022/08/02 14:39:24;;;;;;;13.00;2.63;;;;;;;;;;5031825;28;20348;-72
2022/08/02 14:41:49;;;;;;;11.10;2.33;;;;;;;;;;5041302;28;20113;-72
2022/08/02 14:44:15;;;;;;;13.07;2.50;;;;;;;;;;5021458;28;20829;-73